sensor_id;sensor_type;location;lat;lon;timestamp;pressure;altitude;pressure_sealevel;temperature;humidity
7268;BME280;3675;43.276;27.962;2024-03-08T00:01:38;98344.28;;;4.06;88.35
7268;BME280;3675;43.276;27.962;2024-03-08T00:04:11;98343.50;;;4.02;88.09
7268;BME280;3675;43.276;27.962;2024-03-08T00:06:46;98338.53;;;3.92;89.05
7268;BME280;3675;43.276;27.962;2024-03-08T00:09:20;98333.53;;;3.83;89.17
7268;BME280;3675;43.276;27.962;2024-03-08T00:11:55;98340.25;;;3.91;88.42
7268;BME280;3675;43.276;27.962;2024-03-08T00:14:27;98334.34;;;3.88;88.86
7268;BME280;3675;43.276;27.962;2024-03-08T00:16:59;98328.22;;;3.96;88.59
7268;BME280;3675;43.276;27.962;2024-03-08T00:19:35;98319.72;;;3.96;88.22
7268;BME280;3675;43.276;27.962;2024-03-08T00:22:09;98321.53;;;3.88;88.71
7268;BME280;3675;43.276;27.962;2024-03-08T00:24:41;98312.81;;;4.02;87.50
7268;BME280;3675;43.276;27.962;2024-03-08T00:27:19;98314.53;;;3.99;87.97
7268;BME280;3675;43.276;27.962;2024-03-08T00:29:51;98308.56;;;3.98;87.80
7268;BME280;3675;43.276;27.962;2024-03-08T00:32:23;98303.50;;;3.97;87.96
7268;BME280;3675;43.276;27.962;2024-03-08T00:34:58;98297.53;;;3.95;87.52
7268;BME280;3675;43.276;27.962;2024-03-08T00:37:30;98305.47;;;3.80;88.59
7268;BME280;3675;43.276;27.962;2024-03-08T00:40:09;98297.88;;;3.74;88.24
7268;BME280;3675;43.276;27.962;2024-03-08T00:42:46;98296.03;;;3.83;87.40
7268;BME280;3675;43.276;27.962;2024-03-08T00:45:20;98297.66;;;3.87;87.79
7268;BME280;3675;43.276;27.962;2024-03-08T00:47:55;98303.69;;;3.83;87.24
7268;BME280;3675;43.276;27.962;2024-03-08T00:50:29;98295.25;;;3.80;87.36
7268;BME280;3675;43.276;27.962;2024-03-08T00:53:02;98299.63;;;3.70;88.02
7268;BME280;3675;43.276;27.962;2024-03-08T00:55:38;98290.25;;;3.71;87.87
7268;BME280;3675;43.276;27.962;2024-03-08T00:58:15;98297.94;;;3.69;87.39
7268;BME280;3675;43.276;27.962;2024-03-08T01:00:48;98294.59;;;3.66;87.03
7268;BME280;3675;43.276;27.962;2024-03-08T01:03:24;98292.69;;;3.78;86.95
7268;BME280;3675;43.276;27.962;2024-03-08T01:05:55;98298.72;;;3.76;87.20
7268;BME280;3675;43.276;27.962;2024-03-08T01:08:37;98293.06;;;3.52;88.28
7268;BME280;3675;43.276;27.962;2024-03-08T01:11:12;98286.97;;;3.61;87.34
7268;BME280;3675;43.276;27.962;2024-03-08T01:13:46;98297.06;;;3.70;87.73
7268;BME280;3675;43.276;27.962;2024-03-08T01:16:18;98298.66;;;3.79;87.02
7268;BME280;3675;43.276;27.962;2024-03-08T01:18:52;98294.53;;;3.70;87.32
7268;BME280;3675;43.276;27.962;2024-03-08T01:21:28;98292.75;;;3.75;86.88
7268;BME280;3675;43.276;27.962;2024-03-08T01:24:03;98295.38;;;3.71;87.08
7268;BME280;3675;43.276;27.962;2024-03-08T01:26:36;98290.38;;;3.61;87.34
7268;BME280;3675;43.276;27.962;2024-03-08T01:29:15;98288.69;;;3.60;87.67
7268;BME280;3675;43.276;27.962;2024-03-08T01:31:49;98292.97;;;3.58;87.15
7268;BME280;3675;43.276;27.962;2024-03-08T01:34:30;98293.88;;;3.56;87.38
7268;BME280;3675;43.276;27.962;2024-03-08T01:37:03;98289.78;;;3.43;88.46
7268;BME280;3675;43.276;27.962;2024-03-08T01:39:46;98295.56;;;3.55;86.93
7268;BME280;3675;43.276;27.962;2024-03-08T01:42:22;98304.22;;;3.47;87.43
7268;BME280;3675;43.276;27.962;2024-03-08T01:45:08;98294.72;;;3.55;87.36
7268;BME280;3675;43.276;27.962;2024-03-08T01:47:41;98300.72;;;3.54;87.69
7268;BME280;3675;43.276;27.962;2024-03-08T01:50:12;98306.66;;;3.56;87.57
7268;BME280;3675;43.276;27.962;2024-03-08T01:52:52;98302.28;;;3.64;86.91
7268;BME280;3675;43.276;27.962;2024-03-08T01:55:28;98304.75;;;3.72;86.08
7268;BME280;3675;43.276;27.962;2024-03-08T01:58:03;98298.78;;;3.71;85.81
7268;BME280;3675;43.276;27.962;2024-03-08T02:00:41;98297.88;;;3.75;85.67
7268;BME280;3675;43.276;27.962;2024-03-08T02:03:13;98301.94;;;3.85;85.65
7268;BME280;3675;43.276;27.962;2024-03-08T02:05:49;98309.59;;;3.87;85.53
7268;BME280;3675;43.276;27.962;2024-03-08T02:08:23;98304.75;;;3.72;85.84
7268;BME280;3675;43.276;27.962;2024-03-08T02:10:54;98296.16;;;3.76;85.60
7268;BME280;3675;43.276;27.962;2024-03-08T02:13:33;98301.28;;;3.74;85.33
7268;BME280;3675;43.276;27.962;2024-03-08T02:16:19;98303.88;;;3.71;85.65
7268;BME280;3675;43.276;27.962;2024-03-08T02:18:54;98300.28;;;3.84;84.89
7268;BME280;3675;43.276;27.962;2024-03-08T02:21:41;98303.81;;;3.76;84.99
7268;BME280;3675;43.276;27.962;2024-03-08T02:24:18;98292.94;;;3.61;85.70
7268;BME280;3675;43.276;27.962;2024-03-08T02:26:55;98291.19;;;3.63;86.01
7268;BME280;3675;43.276;27.962;2024-03-08T02:29:28;98292.69;;;3.77;84.81
7268;BME280;3675;43.276;27.962;2024-03-08T02:32:03;98285.94;;;3.76;84.89
7268;BME280;3675;43.276;27.962;2024-03-08T02:34:45;98293.53;;;3.79;84.72
7268;BME280;3675;43.276;27.962;2024-03-08T02:37:21;98291.06;;;3.73;84.94
7268;BME280;3675;43.276;27.962;2024-03-08T02:39:55;98296.19;;;3.73;84.92
7268;BME280;3675;43.276;27.962;2024-03-08T02:42:30;98296.16;;;3.76;84.16
7268;BME280;3675;43.276;27.962;2024-03-08T02:45:02;98302.94;;;3.77;84.17
7268;BME280;3675;43.276;27.962;2024-03-08T02:47:34;98302.00;;;3.84;83.57
7268;BME280;3675;43.276;27.962;2024-03-08T02:50:07;98297.88;;;3.72;83.98
7268;BME280;3675;43.276;27.962;2024-03-08T02:52:42;98302.13;;;3.75;84.15
7268;BME280;3675;43.276;27.962;2024-03-08T02:55:16;98305.53;;;3.75;84.11
7268;BME280;3675;43.276;27.962;2024-03-08T02:57:52;98302.06;;;3.79;83.16
7268;BME280;3675;43.276;27.962;2024-03-08T03:00:26;98306.28;;;3.82;83.26
7268;BME280;3675;43.276;27.962;2024-03-08T03:02:59;98313.16;;;3.77;83.72
7268;BME280;3675;43.276;27.962;2024-03-08T03:05:34;98311.56;;;3.71;83.88
7268;BME280;3675;43.276;27.962;2024-03-08T03:08:12;98306.50;;;3.67;83.54
7268;BME280;3675;43.276;27.962;2024-03-08T03:10:50;98303.91;;;3.68;83.61
7268;BME280;3675;43.276;27.962;2024-03-08T03:13:28;98296.47;;;3.51;84.97
7268;BME280;3675;43.276;27.962;2024-03-08T03:16:00;98300.69;;;3.55;84.34
7268;BME280;3675;43.276;27.962;2024-03-08T03:18:34;98301.53;;;3.57;84.28
7268;BME280;3675;43.276;27.962;2024-03-08T03:21:06;98305.78;;;3.57;84.39
7268;BME280;3675;43.276;27.962;2024-03-08T03:23:45;98300.69;;;3.57;84.51
7268;BME280;3675;43.276;27.962;2024-03-08T03:26:21;98301.53;;;3.54;84.33
7268;BME280;3675;43.276;27.962;2024-03-08T03:28:58;98302.38;;;3.58;84.14
7268;BME280;3675;43.276;27.962;2024-03-08T03:31:39;98298.19;;;3.52;84.52
7268;BME280;3675;43.276;27.962;2024-03-08T03:34:15;98294.84;;;3.49;84.92
7268;BME280;3675;43.276;27.962;2024-03-08T03:36:47;98301.66;;;3.48;84.59
7268;BME280;3675;43.276;27.962;2024-03-08T03:39:21;98303.34;;;3.48;84.85
7268;BME280;3675;43.276;27.962;2024-03-08T03:41:57;98295.84;;;3.36;85.41
7268;BME280;3675;43.276;27.962;2024-03-08T03:44:34;98301.81;;;3.35;85.21
7268;BME280;3675;43.276;27.962;2024-03-08T03:47:11;98308.72;;;3.28;85.58
7268;BME280;3675;43.276;27.962;2024-03-08T03:49:43;98305.28;;;3.31;85.57
7268;BME280;3675;43.276;27.962;2024-03-08T03:52:19;98301.03;;;3.28;85.94
7268;BME280;3675;43.276;27.962;2024-03-08T03:54:55;98306.31;;;3.17;86.14
7268;BME280;3675;43.276;27.962;2024-03-08T03:57:33;98305.47;;;3.15;86.45
7268;BME280;3675;43.276;27.962;2024-03-08T04:00:17;98306.31;;;3.14;86.28
7268;BME280;3675;43.276;27.962;2024-03-08T04:02:57;98306.31;;;3.14;86.73
7268;BME280;3675;43.276;27.962;2024-03-08T04:05:39;98310.47;;;3.23;86.38
7268;BME280;3675;43.276;27.962;2024-03-08T04:08:18;98313.88;;;3.27;85.91
7268;BME280;3675;43.276;27.962;2024-03-08T04:11:00;98313.81;;;3.30;85.73
7268;BME280;3675;43.276;27.962;2024-03-08T04:13:38;98304.59;;;3.18;86.28
7268;BME280;3675;43.276;27.962;2024-03-08T04:16:12;98314.72;;;3.26;86.00
7268;BME280;3675;43.276;27.962;2024-03-08T04:18:47;98314.66;;;3.32;85.71
7268;BME280;3675;43.276;27.962;2024-03-08T04:21:28;98310.47;;;3.26;85.92
7268;BME280;3675;43.276;27.962;2024-03-08T04:24:01;98314.72;;;3.24;85.72
7268;BME280;3675;43.276;27.962;2024-03-08T04:26:38;98315.53;;;3.28;85.78
7268;BME280;3675;43.276;27.962;2024-03-08T04:29:13;98313.06;;;3.22;86.07
7268;BME280;3675;43.276;27.962;2024-03-08T04:31:51;98308.88;;;3.16;86.37
7268;BME280;3675;43.276;27.962;2024-03-08T04:34:38;98315.69;;;3.15;86.10
7268;BME280;3675;43.276;27.962;2024-03-08T04:37:22;98309.78;;;3.10;86.44
7268;BME280;3675;43.276;27.962;2024-03-08T04:40:05;98309.03;;;3.04;87.06
7268;BME280;3675;43.276;27.962;2024-03-08T04:42:45;98317.50;;;3.07;87.19
7268;BME280;3675;43.276;27.962;2024-03-08T04:45:19;98317.50;;;3.09;87.34
7268;BME280;3675;43.276;27.962;2024-03-08T04:48:05;98320.78;;;3.15;86.82
7268;BME280;3675;43.276;27.962;2024-03-08T04:50:41;98310.56;;;3.15;86.92
7268;BME280;3675;43.276;27.962;2024-03-08T04:53:38;98327.69;;;3.09;87.40
7268;BME280;3675;43.276;27.962;2024-03-08T04:56:11;98314.09;;;3.05;87.57
7268;BME280;3675;43.276;27.962;2024-03-08T04:58:49;98314.03;;;3.11;87.55
7268;BME280;3675;43.276;27.962;2024-03-08T05:01:25;98324.19;;;3.16;87.26
7268;BME280;3675;43.276;27.962;2024-03-08T05:04:03;98329.41;;;3.08;87.60
7268;BME280;3675;43.276;27.962;2024-03-08T05:06:41;98331.91;;;3.11;87.93
7268;BME280;3675;43.276;27.962;2024-03-08T05:09:29;98325.84;;;3.20;87.36
7268;BME280;3675;43.276;27.962;2024-03-08T05:12:25;98328.41;;;3.20;87.49
7268;BME280;3675;43.276;27.962;2024-03-08T05:15:21;98331.91;;;3.13;88.07
7268;BME280;3675;43.276;27.962;2024-03-08T05:18:09;98341.25;;;3.15;88.00
7268;BME280;3675;43.276;27.962;2024-03-08T05:20:49;98331.97;;;3.08;87.90
7268;BME280;3675;43.276;27.962;2024-03-08T05:23:26;98337.03;;;3.11;88.36
7268;BME280;3675;43.276;27.962;2024-03-08T05:26:01;98345.50;;;3.15;88.28
7268;BME280;3675;43.276;27.962;2024-03-08T05:28:45;98352.22;;;3.24;87.36
7268;BME280;3675;43.276;27.962;2024-03-08T05:31:26;98353.06;;;3.24;87.73
7268;BME280;3675;43.276;27.962;2024-03-08T05:34:04;98348.75;;;3.28;87.74
7268;BME280;3675;43.276;27.962;2024-03-08T05:36:52;98347.94;;;3.26;87.59
7268;BME280;3675;43.276;27.962;2024-03-08T05:39:33;98350.59;;;3.16;88.33
7268;BME280;3675;43.276;27.962;2024-03-08T05:42:18;98353.22;;;3.10;89.22
7268;BME280;3675;43.276;27.962;2024-03-08T05:44:53;98356.66;;;3.09;89.65
7268;BME280;3675;43.276;27.962;2024-03-08T05:47:31;98353.91;;;3.23;88.87
7268;BME280;3675;43.276;27.962;2024-03-08T05:50:34;98358.22;;;3.23;89.04
7268;BME280;3675;43.276;27.962;2024-03-08T05:53:17;98357.41;;;3.17;89.11
7268;BME280;3675;43.276;27.962;2024-03-08T05:56:01;98364.22;;;3.15;89.70
7268;BME280;3675;43.276;27.962;2024-03-08T05:58:57;98361.63;;;3.20;89.24
7268;BME280;3675;43.276;27.962;2024-03-08T06:01:35;98372.75;;;3.17;89.83
7268;BME280;3675;43.276;27.962;2024-03-08T06:04:15;98365.13;;;3.13;90.28
7268;BME280;3675;43.276;27.962;2024-03-08T06:06:54;98371.94;;;3.11;90.60
7268;BME280;3675;43.276;27.962;2024-03-08T06:09:34;98365.03;;;3.19;90.30
7268;BME280;3675;43.276;27.962;2024-03-08T06:12:18;98371.84;;;3.22;89.90
7268;BME280;3675;43.276;27.962;2024-03-08T06:14:56;98378.66;;;3.21;90.20
7268;BME280;3675;43.276;27.962;2024-03-08T06:17:38;98377.84;;;3.17;90.29
7268;BME280;3675;43.276;27.962;2024-03-08T06:20:28;98381.16;;;3.27;89.73
7268;BME280;3675;43.276;27.962;2024-03-08T06:23:00;98384.50;;;3.31;89.78
7268;BME280;3675;43.276;27.962;2024-03-08T06:26:01;98382.97;;;3.16;90.25
7268;BME280;3675;43.276;27.962;2024-03-08T06:28:44;98382.88;;;3.25;90.03
7268;BME280;3675;43.276;27.962;2024-03-08T06:31:26;98380.25;;;3.28;89.75
7268;BME280;3675;43.276;27.962;2024-03-08T06:34:14;98381.91;;;3.32;89.06
7268;BME280;3675;43.276;27.962;2024-03-08T06:37:00;98378.56;;;3.30;89.20
7268;BME280;3675;43.276;27.962;2024-03-08T06:39:41;98381.84;;;3.40;89.18
7268;BME280;3675;43.276;27.962;2024-03-08T06:42:38;98386.16;;;3.36;89.08
7268;BME280;3675;43.276;27.962;2024-03-08T06:45:18;98386.06;;;3.42;89.32
7268;BME280;3675;43.276;27.962;2024-03-08T06:47:55;98381.75;;;3.46;88.74
7268;BME280;3675;43.276;27.962;2024-03-08T06:50:39;98379.19;;;3.47;88.76
7268;BME280;3675;43.276;27.962;2024-03-08T06:53:18;98383.50;;;3.42;88.87
7268;BME280;3675;43.276;27.962;2024-03-08T06:56:01;98386.91;;;3.43;88.95
7268;BME280;3675;43.276;27.962;2024-03-08T06:58:38;98384.34;;;3.43;88.46
7268;BME280;3675;43.276;27.962;2024-03-08T07:01:27;98392.19;;;3.29;89.37
7268;BME280;3675;43.276;27.962;2024-03-08T07:04:01;98389.63;;;3.31;89.50
7268;BME280;3675;43.276;27.962;2024-03-08T07:06:41;98402.38;;;3.32;89.27
7268;BME280;3675;43.276;27.962;2024-03-08T07:09:44;98400.53;;;3.45;89.34
7268;BME280;3675;43.276;27.962;2024-03-08T07:12:32;98397.25;;;3.34;89.21
7268;BME280;3675;43.276;27.962;2024-03-08T07:15:15;98395.44;;;3.45;88.47
7268;BME280;3675;43.276;27.962;2024-03-08T07:18:04;98392.03;;;3.41;89.19
7268;BME280;3675;43.276;27.962;2024-03-08T07:20:44;98392.81;;;3.48;89.28
7268;BME280;3675;43.276;27.962;2024-03-08T07:23:21;98394.53;;;3.49;89.22
7268;BME280;3675;43.276;27.962;2024-03-08T07:26:17;98400.44;;;3.54;88.28
7268;BME280;3675;43.276;27.962;2024-03-08T07:29:04;98398.75;;;3.50;89.42
7268;BME280;3675;43.276;27.962;2024-03-08T07:32:23;98399.59;;;3.52;89.26
7268;BME280;3675;43.276;27.962;2024-03-08T07:35:05;98402.16;;;3.50;88.75
7268;BME280;3675;43.276;27.962;2024-03-08T07:37:49;98397.81;;;3.57;88.84
7268;BME280;3675;43.276;27.962;2024-03-08T07:40:32;98389.25;;;3.59;88.32
7268;BME280;3675;43.276;27.962;2024-03-08T07:43:13;98400.44;;;3.51;88.61
7268;BME280;3675;43.276;27.962;2024-03-08T07:45:52;98400.44;;;3.51;88.90
7268;BME280;3675;43.276;27.962;2024-03-08T07:48:35;98399.63;;;3.49;88.93
7268;BME280;3675;43.276;27.962;2024-03-08T07:51:18;98402.16;;;3.50;88.96
7268;BME280;3675;43.276;27.962;2024-03-08T07:53:55;98404.69;;;3.52;88.97
7268;BME280;3675;43.276;27.962;2024-03-08T07:57:00;98406.34;;;3.57;89.08
7268;BME280;3675;43.276;27.962;2024-03-08T07:59:52;98390.97;;;3.59;88.70
7268;BME280;3675;43.276;27.962;2024-03-08T08:02:52;98405.50;;;3.57;88.77
7268;BME280;3675;43.276;27.962;2024-03-08T08:05:49;98400.44;;;3.54;89.27
7268;BME280;3675;43.276;27.962;2024-03-08T08:08:31;98397.81;;;3.57;88.97
7268;BME280;3675;43.276;27.962;2024-03-08T08:11:07;98404.66;;;3.56;89.21
7268;BME280;3675;43.276;27.962;2024-03-08T08:13:49;98396.97;;;3.56;89.26
7268;BME280;3675;43.276;27.962;2024-03-08T08:16:39;98406.25;;;3.63;88.84
7268;BME280;3675;43.276;27.962;2024-03-08T08:19:14;98403.63;;;3.70;88.93
7268;BME280;3675;43.276;27.962;2024-03-08T08:22:13;98405.28;;;3.72;88.54
7268;BME280;3675;43.276;27.962;2024-03-08T08:25:06;98405.28;;;3.72;88.50
7268;BME280;3675;43.276;27.962;2024-03-08T08:27:47;98413.00;;;3.68;88.77
7268;BME280;3675;43.276;27.962;2024-03-08T08:30:22;98407.00;;;3.73;88.71
7268;BME280;3675;43.276;27.962;2024-03-08T08:33:08;98401.00;;;3.74;88.73
7268;BME280;3675;43.276;27.962;2024-03-08T08:35:43;98403.47;;;3.82;88.20
7268;BME280;3675;43.276;27.962;2024-03-08T08:38:19;98403.56;;;3.76;88.27
7268;BME280;3675;43.276;27.962;2024-03-08T08:40:55;98397.59;;;3.75;88.00
7268;BME280;3675;43.276;27.962;2024-03-08T08:43:44;98406.00;;;3.83;87.97
7268;BME280;3675;43.276;27.962;2024-03-08T08:46:31;98409.47;;;3.79;88.33
7268;BME280;3675;43.276;27.962;2024-03-08T08:49:38;98409.44;;;3.82;88.60
7268;BME280;3675;43.276;27.962;2024-03-08T08:52:19;98414.53;;;3.82;88.65
7268;BME280;3675;43.276;27.962;2024-03-08T08:55:03;98407.72;;;3.83;88.77
7268;BME280;3675;43.276;27.962;2024-03-08T08:57:50;98411.19;;;3.79;88.44
7268;BME280;3675;43.276;27.962;2024-03-08T09:00:44;98413.72;;;3.80;88.43
7268;BME280;3675;43.276;27.962;2024-03-08T09:06:25;98417.16;;;3.78;88.20
7268;BME280;3675;43.276;27.962;2024-03-08T09:08:59;98411.19;;;3.80;87.85
7268;BME280;3675;43.276;27.962;2024-03-08T09:11:37;98414.59;;;3.79;88.06
7268;BME280;3675;43.276;27.962;2024-03-08T09:14:29;98413.78;;;3.76;88.37
7268;BME280;3675;43.276;27.962;2024-03-08T09:17:31;98414.66;;;3.73;88.94
7268;BME280;3675;43.276;27.962;2024-03-08T09:20:07;98416.25;;;3.82;88.02
7268;BME280;3675;43.276;27.962;2024-03-08T09:23:07;98421.41;;;3.79;88.96
7268;BME280;3675;43.276;27.962;2024-03-08T09:25:54;98408.75;;;3.71;88.77
7268;BME280;3675;43.276;27.962;2024-03-08T09:28:58;98420.56;;;3.80;88.57
7268;BME280;3675;43.276;27.962;2024-03-08T09:31:50;98423.84;;;3.88;88.52
7268;BME280;3675;43.276;27.962;2024-03-08T09:34:51;98417.84;;;3.90;88.62
7268;BME280;3675;43.276;27.962;2024-03-08T09:37:26;98418.56;;;4.00;88.19
7268;BME280;3675;43.276;27.962;2024-03-08T09:40:16;98422.81;;;4.02;87.40
7268;BME280;3675;43.276;27.962;2024-03-08T09:43:03;98425.50;;;3.90;87.69
7268;BME280;3675;43.276;27.962;2024-03-08T09:46:10;98424.72;;;3.88;88.08
7268;BME280;3675;43.276;27.962;2024-03-08T09:49:04;98430.63;;;3.93;88.12
7268;BME280;3675;43.276;27.962;2024-03-08T09:51:44;98425.44;;;3.96;87.81
7268;BME280;3675;43.276;27.962;2024-03-08T09:54:54;98428.75;;;4.03;87.21
7268;BME280;3675;43.276;27.962;2024-03-08T09:57:38;98431.41;;;3.97;87.39
7268;BME280;3675;43.276;27.962;2024-03-08T10:00:47;98424.53;;;3.99;87.44
7268;BME280;3675;43.276;27.962;2024-03-08T10:03:29;98420.22;;;4.04;87.86
7268;BME280;3675;43.276;27.962;2024-03-08T10:06:35;98419.34;;;4.05;87.37
7268;BME280;3675;43.276;27.962;2024-03-08T10:09:58;98427.78;;;4.13;87.01
7268;BME280;3675;43.276;27.962;2024-03-08T10:13:08;98420.03;;;4.18;87.26
7268;BME280;3675;43.276;27.962;2024-03-08T10:24:32;98422.59;;;4.18;87.75
7268;BME280;3675;43.276;27.962;2024-03-08T10:27:29;98421.72;;;4.19;87.34
7268;BME280;3675;43.276;27.962;2024-03-08T10:30:50;98415.94;;;4.04;87.91
7268;BME280;3675;43.276;27.962;2024-03-08T10:33:58;98407.28;;;4.15;87.29
7268;BME280;3675;43.276;27.962;2024-03-08T10:45:35;98423.25;;;4.32;86.53
7268;BME280;3675;43.276;27.962;2024-03-08T10:48:31;98425.78;;;4.33;86.19
7268;BME280;3675;43.276;27.962;2024-03-08T10:52:44;98425.81;;;4.30;86.32
7268;BME280;3675;43.276;27.962;2024-03-08T10:56:25;98424.09;;;4.29;85.94
7268;BME280;3675;43.276;27.962;2024-03-08T11:00:35;98418.19;;;4.27;85.08
7268;BME280;3675;43.276;27.962;2024-03-08T11:02:34;98412.16;;;4.30;84.95
7268;BME280;3675;43.276;27.962;2024-03-08T11:14:00;98407.22;;;4.18;85.68
7268;BME280;3675;43.276;27.962;2024-03-08T11:17:20;98410.44;;;4.33;85.26
7268;BME280;3675;43.276;27.962;2024-03-08T11:20:47;98411.25;;;4.34;85.64
7268;BME280;3675;43.276;27.962;2024-03-08T11:24:22;98407.03;;;4.33;84.08
7268;BME280;3675;43.276;27.962;2024-03-08T11:27:12;98412.16;;;4.30;85.17
7268;BME280;3675;43.276;27.962;2024-03-08T11:30:15;98410.38;;;4.36;84.97
7268;BME280;3675;43.276;27.962;2024-03-08T11:33:02;98409.31;;;4.48;84.50
7268;BME280;3675;43.276;27.962;2024-03-08T11:36:03;98414.41;;;4.51;84.14
7268;BME280;3675;43.276;27.962;2024-03-08T11:38:52;98412.84;;;4.41;85.79
7268;BME280;3675;43.276;27.962;2024-03-08T11:41:39;98412.03;;;4.39;85.58
7268;BME280;3675;43.276;27.962;2024-03-08T11:44:41;98412.72;;;4.48;85.38
7268;BME280;3675;43.276;27.962;2024-03-08T11:47:44;98408.47;;;4.49;85.34
7268;BME280;3675;43.276;27.962;2024-03-08T11:50:53;98399.72;;;4.61;84.42
7268;BME280;3675;43.276;27.962;2024-03-08T11:53:49;98411.94;;;4.45;83.37
7268;BME280;3675;43.276;27.962;2024-03-08T11:56:39;98408.53;;;4.44;83.07
7268;BME280;3675;43.276;27.962;2024-03-08T11:59:22;98404.53;;;4.28;84.57
7268;BME280;3675;43.276;27.962;2024-03-08T12:03:07;98400.91;;;4.40;83.93
7268;BME280;3675;43.276;27.962;2024-03-08T12:06:21;98406.81;;;4.46;83.83
7268;BME280;3675;43.276;27.962;2024-03-08T12:09:12;98405.03;;;4.50;82.71
7268;BME280;3675;43.276;27.962;2024-03-08T12:11:58;98407.44;;;4.59;83.56
7268;BME280;3675;43.276;27.962;2024-03-08T12:14:46;98403.28;;;4.53;82.61
7268;BME280;3675;43.276;27.962;2024-03-08T12:17:19;98406.03;;;4.41;83.02
7268;BME280;3675;43.276;27.962;2024-03-08T12:20:21;98401.75;;;4.42;82.74
7268;BME280;3675;43.276;27.962;2024-03-08T12:23:15;98413.78;;;4.35;82.99
7268;BME280;3675;43.276;27.962;2024-03-08T12:25:52;98409.66;;;4.28;82.44
7268;BME280;3675;43.276;27.962;2024-03-08T12:28:44;98400.25;;;4.29;82.20
7268;BME280;3675;43.276;27.962;2024-03-08T12:31:24;98400.22;;;4.30;82.95
7268;BME280;3675;43.276;27.962;2024-03-08T12:34:08;98412.94;;;4.36;82.89
7268;BME280;3675;43.276;27.962;2024-03-08T12:39:55;98408.94;;;4.19;82.42
7268;BME280;3675;43.276;27.962;2024-03-08T12:42:38;98407.25;;;4.16;83.68
7268;BME280;3675;43.276;27.962;2024-03-08T12:45:13;98406.50;;;4.10;82.99
7268;BME280;3675;43.276;27.962;2024-03-08T12:48:00;98403.03;;;4.14;83.45
7268;BME280;3675;43.276;27.962;2024-03-08T12:50:39;98399.56;;;4.16;83.50
7268;BME280;3675;43.276;27.962;2024-03-08T12:53:28;98408.00;;;4.23;83.49
7268;BME280;3675;43.276;27.962;2024-03-08T12:56:28;98402.75;;;4.32;82.58
7268;BME280;3675;43.276;27.962;2024-03-08T12:59:08;98399.50;;;4.22;83.69
7268;BME280;3675;43.276;27.962;2024-03-08T13:02:01;98397.00;;;4.18;82.75
7268;BME280;3675;43.276;27.962;2024-03-08T13:04:52;98397.97;;;4.11;83.48
7268;BME280;3675;43.276;27.962;2024-03-08T13:07:39;98397.84;;;4.17;82.70
7268;BME280;3675;43.276;27.962;2024-03-08T13:10:29;98396.25;;;4.11;83.57
7268;BME280;3675;43.276;27.962;2024-03-08T13:13:18;98396.19;;;4.14;82.41
7268;BME280;3675;43.276;27.962;2024-03-08T13:15:56;98387.81;;;4.04;82.24
7268;BME280;3675;43.276;27.962;2024-03-08T13:18:46;98411.75;;;3.99;82.34
7268;BME280;3675;43.276;27.962;2024-03-08T13:21:29;98406.81;;;3.87;82.12
7268;BME280;3675;43.276;27.962;2024-03-08T13:24:09;98410.09;;;3.96;82.55
7268;BME280;3675;43.276;27.962;2024-03-08T13:26:55;98400.84;;;3.86;82.76
7268;BME280;3675;43.276;27.962;2024-03-08T13:29:34;98405.78;;;4.00;81.95
7268;BME280;3675;43.276;27.962;2024-03-08T13:32:11;98406.56;;;4.05;82.03
7268;BME280;3675;43.276;27.962;2024-03-08T13:34:47;98415.06;;;4.07;81.90
7268;BME280;3675;43.276;27.962;2024-03-08T13:37:26;98406.56;;;4.03;82.20
7268;BME280;3675;43.276;27.962;2024-03-08T13:40:09;98412.47;;;4.10;81.07
7268;BME280;3675;43.276;27.962;2024-03-08T13:42:57;98406.63;;;4.00;80.11
7268;BME280;3675;43.276;27.962;2024-03-08T13:45:44;98416.91;;;3.96;80.91
7268;BME280;3675;43.276;27.962;2024-03-08T13:48:32;98418.47;;;4.07;81.75
7268;BME280;3675;43.276;27.962;2024-03-08T13:51:15;98423.50;;;4.12;81.29
7268;BME280;3675;43.276;27.962;2024-03-08T13:54:22;98415.91;;;4.07;80.32
7268;BME280;3675;43.276;27.962;2024-03-08T13:57:07;98410.63;;;4.18;80.39
7268;BME280;3675;43.276;27.962;2024-03-08T14:00:11;98407.25;;;4.16;80.54
7268;BME280;3675;43.276;27.962;2024-03-08T14:02:48;98409.00;;;4.13;79.54
7268;BME280;3675;43.276;27.962;2024-03-08T14:05:41;98404.69;;;4.16;79.42
7268;BME280;3675;43.276;27.962;2024-03-08T14:11:45;98409.06;;;4.08;80.37
7268;BME280;3675;43.276;27.962;2024-03-08T14:14:27;98405.63;;;4.11;80.01
7268;BME280;3675;43.276;27.962;2024-03-08T14:17:28;98407.47;;;3.99;78.88
7268;BME280;3675;43.276;27.962;2024-03-08T14:20:23;98404.19;;;3.90;79.79
7268;BME280;3675;43.276;27.962;2024-03-08T14:23:16;98399.88;;;3.95;78.68
7268;BME280;3675;43.276;27.962;2024-03-08T14:26:26;98405.94;;;3.89;79.37
7268;BME280;3675;43.276;27.962;2024-03-08T14:32:42;98411.88;;;3.90;79.71
7268;BME280;3675;43.276;27.962;2024-03-08T14:35:24;98412.03;;;3.78;80.23
7268;BME280;3675;43.276;27.962;2024-03-08T14:38:17;98417.16;;;3.79;80.45
7268;BME280;3675;43.276;27.962;2024-03-08T14:40:54;98408.50;;;3.89;79.82
7268;BME280;3675;43.276;27.962;2024-03-08T14:43:51;98417.09;;;3.82;79.43
7268;BME280;3675;43.276;27.962;2024-03-08T14:46:40;98423.00;;;3.87;78.72
7268;BME280;3675;43.276;27.962;2024-03-08T14:49:42;98420.44;;;3.89;79.48
7268;BME280;3675;43.276;27.962;2024-03-08T14:55:34;98427.31;;;3.84;79.42
7268;BME280;3675;43.276;27.962;2024-03-08T14:58:14;98429.69;;;3.97;78.38
7268;BME280;3675;43.276;27.962;2024-03-08T15:01:11;98434.81;;;3.97;78.29
7268;BME280;3675;43.276;27.962;2024-03-08T15:04:16;98434.03;;;3.91;78.08
7268;BME280;3675;43.276;27.962;2024-03-08T15:07:29;98426.41;;;3.88;78.73
7268;BME280;3675;43.276;27.962;2024-03-08T15:10:22;98429.09;;;3.80;78.39
7268;BME280;3675;43.276;27.962;2024-03-08T15:13:13;98432.66;;;3.66;79.42
7268;BME280;3675;43.276;27.962;2024-03-08T15:16:25;98427.59;;;3.61;78.95
7268;BME280;3675;43.276;27.962;2024-03-08T15:19:09;98436.06;;;3.65;78.96
7268;BME280;3675;43.276;27.962;2024-03-08T15:22:26;98439.59;;;3.57;79.19
7268;BME280;3675;43.276;27.962;2024-03-08T15:25:55;98441.28;;;3.55;79.33
7268;BME280;3675;43.276;27.962;2024-03-08T15:28:38;98425.19;;;3.49;79.60
7268;BME280;3675;43.276;27.962;2024-03-08T15:31:15;98435.31;;;3.56;79.27
7268;BME280;3675;43.276;27.962;2024-03-08T15:34:24;98440.44;;;3.56;79.29
7268;BME280;3675;43.276;27.962;2024-03-08T15:37:08;98442.00;;;3.70;77.94
7268;BME280;3675;43.276;27.962;2024-03-08T15:39:50;98446.31;;;3.66;77.78
7268;BME280;3675;43.276;27.962;2024-03-08T15:42:47;98448.91;;;3.61;77.86